CDT,Max TemperatureF,Mean TemperatureF,Min TemperatureF,Max Dew PointF,MeanDew PointF,Min DewpointF,Max Humidity, Mean Humidity, Min Humidity, Max Sea Level PressureIn, Mean Sea Level PressureIn, Min Sea Level PressureIn, Max VisibilityMiles, Mean VisibilityMiles, Min VisibilityMiles, Max Wind SpeedMPH, Mean Wind SpeedMPH, Max Gust SpeedMPH,PrecipitationIn, CloudCover, Events, WindDirDegrees
2012-3-1,54,38,22,35,29,21,96,71,46,29.92,29.77,29.58,10,10,5,17,8,22,0.00,0,,81
2012-3-2,42,37,31,34,31,24,96,80,64,29.88,29.64,29.51,10,6,0,20,12,29,0.14,6,Fog-Rain-Snow,329
2012-3-3,41,32,22,22,19,17,88,66,44,29.97,29.93,29.86,10,10,10,24,11,33,0.00,4,,286
2012-3-4,39,27,15,27,22,14,92,73,54,30.20,29.99,29.90,10,10,10,24,5,35,T,6,,323
2012-3-5,49,33,17,24,21,15,92,62,31,30.40,30.26,30.04,10,10,10,18,8,24,0.00,1,,174
2012-3-6,74,54,34,37,32,26,64,42,19,30.01,29.89,29.80,10,10,10,33,18,46,0.00,0,,196
2012-3-7,69,54,38,52,45,36,92,70,47,30.00,29.87,29.79,10,9,3,31,17,43,0.10,7,Rain,226
2012-3-8,49,39,29,34,26,16,85,56,26,30.45,30.25,30.02,10,9,2,22,9,28,0.22,3,Rain-Snow-Thunderstorm,306
2012-3-9,52,40,27,22,18,11,69,45,21,30.63,30.53,30.46,10,10,10,13,6,15,0.00,0,,64
2012-3-10,64,47,30,29,25,19,69,47,25,30.44,30.32,30.20,10,10,10,22,11,30,0.00,0,,195
2012-3-11,59,46,33,52,41,25,100,72,43,30.20,30.04,29.84,10,9,2,23,12,30,0.21,5,Rain,156
2012-3-12,67,54,40,52,49,43,96,77,58,29.99,29.84,29.79,10,8,0,18,9,26,0.13,5,Fog-Rain,221
2012-3-13,78,57,35,51,42,35,100,66,32,30.12,30.02,29.95,10,4,0,15,6,20,0.00,0,Fog,169
2012-3-14,80,67,54,61,57,45,80,66,52,29.99,29.94,29.90,10,10,10,21,13,30,0.00,3,,204
2012-3-15,80,70,60,61,59,57,93,72,51,30.06,30.01,29.96,10,10,8,17,8,25,0.00,3,,209
2012-3-16,82,70,58,62,59,54,97,70,42,30.03,29.98,29.92,10,9,6,22,10,28,0.03,2,Rain-Thunderstorm,182
2012-3-17,78,67,55,61,57,53,100,77,53,30.00,29.95,29.88,10,9,5,25,11,30,0.00,0,,172
2012-3-18,79,65,51,60,57,50,100,77,54,29.96,29.92,29.88,10,9,2,23,12,32,0.00,4,,163
2012-3-19,80,68,56,63,59,55,93,72,50,29.89,29.80,29.72,10,8,1,31,12,37,0.42,6,Rain-Thunderstorm,185
2012-3-20,76,66,56,61,57,55,100,77,53,29.96,29.87,29.78,10,10,2,30,10,47,0.22,7,Rain,166
2012-3-21,71,65,58,61,58,53,100,82,63,30.01,29.95,29.90,10,8,3,17,9,23,0.75,7,Rain,110
2012-3-22,66,59,51,57,52,49,93,78,63,30.02,29.98,29.90,10,9,2,24,7,33,0.35,6,Rain,144
2012-3-23,65,55,44,52,49,44,100,80,60,29.96,29.90,29.83,10,10,9,18,6,24,T,4,Rain,22
2012-3-24,69,59,48,58,53,47,93,80,66,30.02,29.95,29.86,10,8,2,13,8,17,0.02,4,,330
2012-3-25,77,61,44,57,50,44,100,71,41,30.12,30.05,30.01,10,4,0,9,2,14,0.00,2,Fog,354
2012-3-26,68,58,48,52,48,42,100,76,52,30.20,30.11,30.02,10,9,4,20,11,26,0.00,1,,101
2012-3-27,76,64,52,58,53,43,83,68,53,30.01,29.94,29.86,10,10,10,24,12,35,0.00,2,,199
2012-3-28,76,60,44,57,45,38,93,60,27,30.07,30.00,29.91,10,10,8,12,4,15,0.00,0,,31
2012-3-29,61,56,50,56,50,39,96,71,46,30.05,29.93,29.77,10,7,1,37,10,44,1.07,6,Rain-Thunderstorm,96
2012-3-30,67,60,53,56,54,51,93,78,63,29.90,29.78,29.67,10,9,6,15,7,20,0.00,4,,319
2012-3-31,78,63,48,60,53,46,100,77,54,29.91,29.83,29.71,10,6,2,15,9,18,0.00,1,,145